Time;durP1;ratioP1;P1;durP2;ratioP2;P2;SDS_P1;SDS_P2;PMS_P1;PMS_P2;Temp;Humidity;BMP_temperature;BMP_pressure;BME280_temperature;BME280_humidity;BME280_pressure;Samples;Min_cycle;Max_cycle;Signal;HPM_P1;HPM_P2
2022/05/21 00:02:07;;;;;;;3.05;2.50;;;23.10;72.30;;;;;;5001985;28;20185;-70
2022/05/21 00:04:36;;;;;;;2.80;2.45;;;23.10;72.30;;;;;;5001313;28;20193;-69
2022/05/21 00:07:03;;;;;;;3.08;2.78;;;23.10;72.30;;;;;;4981675;28;20213;-69
2022/05/21 00:09:29;;;;;;;2.70;2.50;;;23.10;72.30;;;;;;4996674;28;20221;-69
2022/05/21 00:11:55;;;;;;;2.72;2.53;;;23.10;72.30;;;;;;4997259;28;20225;-69
2022/05/21 00:14:22;;;;;;;2.58;2.38;;;23.10;72.30;;;;;;4981382;28;20189;-69
2022/05/21 00:16:49;;;;;;;3.05;2.80;;;23.10;72.20;;;;;;4965511;28;20217;-69
2022/05/21 00:19:15;;;;;;;2.88;2.58;;;23.10;72.10;;;;;;4966773;28;20189;-69
2022/05/21 00:21:41;;;;;;;2.90;2.70;;;23.10;72.10;;;;;;5000650;28;20182;-69
2022/05/21 00:24:07;;;;;;;2.75;2.47;;;23.10;72.10;;;;;;5003225;28;20303;-69
2022/05/21 00:26:33;;;;;;;2.40;2.20;;;23.10;72.10;;;;;;4964322;28;20217;-69
2022/05/21 00:28:58;;;;;;;3.08;2.60;;;23.10;72.30;;;;;;4981130;28;20250;-69
2022/05/21 00:31:24;;;;;;;2.63;2.03;;;23.10;72.10;;;;;;4980959;28;20225;-69
2022/05/21 00:33:50;;;;;;;2.47;2.28;;;23.10;72.10;;;;;;5012721;28;20188;-69
2022/05/21 00:36:16;;;;;;;3.00;2.60;;;23.00;72.00;;;;;;4982319;28;20212;-69
2022/05/21 00:38:42;;;;;;;3.20;2.40;;;23.10;72.00;;;;;;4998999;28;20204;-69
2022/05/21 00:41:12;;;;;;;2.60;2.30;;;23.10;72.10;;;;;;4998519;28;20563;-70
2022/05/21 00:43:49;;;;;;;2.72;2.50;;;23.00;72.00;;;;;;5003021;28;20200;-69
2022/05/21 00:46:24;;;;;;;3.35;2.63;;;23.10;72.10;;;;;;5002748;28;20616;-69
2022/05/21 00:49:03;;;;;;;2.70;2.50;;;23.00;72.00;;;;;;5002971;28;20192;-69
2022/05/21 00:51:36;;;;;;;2.58;2.38;;;23.00;72.00;;;;;;5002681;28;20228;-70
2022/05/21 00:54:05;;;;;;;3.13;2.47;;;23.00;72.00;;;;;;4983681;28;20275;-69
2022/05/21 00:56:38;;;;;;;2.50;2.30;;;23.00;72.00;;;;;;4999900;28;20201;-69
2022/05/21 01:01:56;;;;;;;2.75;2.40;;;23.10;72.00;;;;;;5000387;28;20191;-69
2022/05/21 01:04:24;;;;;;;3.20;2.40;;;23.00;72.00;;;;;;4984227;28;20181;-69
2022/05/21 01:06:50;;;;;;;2.60;2.40;;;23.00;71.90;;;;;;5000628;28;20303;-69
2022/05/21 01:09:16;;;;;;;2.60;2.40;;;23.00;71.90;;;;;;4985298;28;20181;-69
2022/05/21 01:11:42;;;;;;;2.38;2.17;;;23.00;71.90;;;;;;5001333;28;20370;-69
2022/05/21 01:14:11;;;;;;;2.00;1.90;;;23.00;71.90;;;;;;5000777;28;20189;-69
2022/05/21 01:16:37;;;;;;;2.55;2.35;;;23.00;71.90;;;;;;5001314;28;20231;-69
2022/05/21 01:19:09;;;;;;;2.53;2.33;;;23.00;71.80;;;;;;5001744;28;20195;-69
2022/05/21 01:21:37;;;;;;;2.33;2.13;;;23.00;71.90;;;;;;5001527;28;20192;-69
2022/05/21 01:24:06;;;;;;;2.80;2.35;;;23.00;71.90;;;;;;5002210;28;20195;-69
2022/05/21 01:26:34;;;;;;;2.63;2.40;;;23.00;71.80;;;;;;5002597;28;20221;-70
2022/05/21 01:29:04;;;;;;;2.63;2.13;;;23.00;71.80;;;;;;4986379;28;20276;-69
2022/05/21 01:31:34;;;;;;;2.60;2.40;;;23.00;71.70;;;;;;5018645;28;20221;-69
2022/05/21 01:34:00;;;;;;;2.60;2.40;;;23.00;71.70;;;;;;4985748;28;20212;-69
2022/05/21 01:36:26;;;;;;;3.15;2.35;;;23.00;71.70;;;;;;5003025;28;20232;-69
2022/05/21 01:38:52;;;;;;;2.15;2.05;;;23.00;71.70;;;;;;5017905;28;20183;-69
2022/05/21 01:41:18;;;;;;;2.45;2.25;;;23.00;71.60;;;;;;5019164;28;20578;-69
2022/05/21 01:46:28;;;;;;;2.47;2.28;;;23.00;71.60;;;;;;5002202;28;20211;-69
2022/05/21 01:48:54;;;;;;;2.28;2.08;;;23.00;71.70;;;;;;5001538;28;20197;-69
2022/05/21 01:51:20;;;;;;;2.33;2.00;;;22.90;71.60;;;;;;5001685;28;20307;-69
2022/05/21 01:53:46;;;;;;;2.20;2.08;;;22.90;71.50;;;;;;5001171;28;20185;-69
2022/05/21 01:56:14;;;;;;;2.30;2.10;;;22.90;71.40;;;;;;4985122;28;20219;-69
2022/05/21 01:58:41;;;;;;;2.20;2.00;;;22.90;71.50;;;;;;5001242;28;20196;-69
2022/05/21 02:01:09;;;;;;;2.30;2.10;;;23.00;71.60;;;;;;5002744;28;20181;-69
2022/05/21 02:03:36;;;;;;;2.67;2.40;;;23.00;71.60;;;;;;5001117;28;20683;-69
2022/05/21 02:06:02;;;;;;;2.45;2.20;;;22.90;71.50;;;;;;5017282;28;20205;-69
2022/05/21 02:08:28;;;;;;;2.80;2.17;;;23.00;71.60;;;;;;5001911;28;20185;-68
2022/05/21 02:10:54;;;;;;;2.30;2.10;;;22.90;71.40;;;;;;5001308;28;20213;-69
2022/05/21 02:13:28;;;;;;;2.28;2.08;;;23.00;71.50;;;;;;4983861;28;20561;-69
2022/05/21 02:15:54;;;;;;;2.55;2.35;;;22.90;71.60;;;;;;5014375;28;20243;-69
2022/05/21 02:18:20;;;;;;;1.92;1.83;;;22.90;71.40;;;;;;4999764;28;20181;-69
2022/05/21 02:20:48;;;;;;;2.50;2.30;;;22.90;71.40;;;;;;5014933;28;20234;-69
2022/05/21 02:23:14;;;;;;;2.30;2.10;;;22.90;71.30;;;;;;5000066;28;20213;-69
2022/05/21 02:25:41;;;;;;;2.05;1.85;;;22.90;71.30;;;;;;4999349;28;20267;-69
2022/05/21 02:28:08;;;;;;;2.05;1.85;;;22.90;71.20;;;;;;5015225;28;20177;-69
2022/05/21 02:30:34;;;;;;;2.10;1.83;;;22.90;71.20;;;;;;4999470;28;20251;-69
2022/05/21 02:33:00;;;;;;;2.40;2.20;;;22.90;71.30;;;;;;4984686;28;20225;-69
2022/05/21 02:35:26;;;;;;;2.63;2.00;;;22.90;71.30;;;;;;4984512;28;20318;-69
2022/05/21 02:40:36;;;;;;;2.15;1.80;;;22.90;71.20;;;;;;5002425;28;20177;-70
2022/05/21 02:43:02;;;;;;;2.17;1.98;;;22.90;71.20;;;;;;5000511;28;20188;-69
2022/05/21 02:45:29;;;;;;;2.10;1.90;;;22.90;71.10;;;;;;4984049;28;20205;-69
2022/05/21 02:47:57;;;;;;;2.38;2.17;;;22.90;71.00;;;;;;5000757;28;20189;-69
2022/05/21 02:50:32;;;;;;;1.92;1.80;;;22.90;71.00;;;;;;4984110;28;20272;-69
2022/05/21 02:53:00;;;;;;;2.35;2.17;;;22.90;71.00;;;;;;4999783;28;20193;-70
2022/05/21 02:55:28;;;;;;;1.92;1.83;;;22.90;71.00;;;;;;5000898;28;20227;-70
2022/05/21 02:57:53;;;;;;;2.00;1.90;;;22.90;71.00;;;;;;4998607;28;20197;-69
2022/05/21 03:00:27;;;;;;;2.35;2.15;;;22.90;70.90;;;;;;5016565;28;20193;-69
2022/05/21 03:02:54;;;;;;;1.98;1.80;;;22.90;71.00;;;;;;4985010;28;20268;-69
2022/05/21 03:05:21;;;;;;;2.28;2.13;;;22.90;71.00;;;;;;4982612;28;20223;-69
2022/05/21 03:07:50;;;;;;;2.10;1.95;;;22.90;71.00;;;;;;4983360;28;20199;-69
2022/05/21 03:10:22;;;;;;;3.92;1.95;;;22.90;70.90;;;;;;5001145;28;20185;-69
2022/05/21 03:12:54;;;;;;;2.15;2.00;;;22.90;70.90;;;;;;5000369;28;20259;-69
2022/05/21 03:15:26;;;;;;;2.10;1.95;;;22.90;71.00;;;;;;5000089;28;20252;-69
2022/05/21 03:17:52;;;;;;;2.08;1.95;;;22.90;70.90;;;;;;4999560;28;20187;-69
2022/05/21 03:20:20;;;;;;;1.88;1.77;;;22.90;70.90;;;;;;5016572;28;20204;-69
2022/05/21 03:22:46;;;;;;;2.30;2.10;;;22.90;70.90;;;;;;4999672;28;20181;-70
2022/05/21 03:25:13;;;;;;;1.90;1.80;;;22.90;70.90;;;;;;4982093;28;20204;-70
2022/05/21 03:27:41;;;;;;;2.00;1.83;;;22.90;70.90;;;;;;4998815;28;20184;-70
2022/05/21 03:30:13;;;;;;;1.88;1.77;;;22.90;71.00;;;;;;4998994;28;20279;-69
2022/05/21 03:32:39;;;;;;;2.13;2.03;;;22.90;71.10;;;;;;4999495;28;20216;-69
2022/05/21 03:35:05;;;;;;;2.53;2.20;;;22.90;70.80;;;;;;4999111;28;20734;-69
2022/05/21 03:37:32;;;;;;;2.55;1.63;;;22.90;70.80;;;;;;4996973;28;20589;-69
2022/05/21 03:40:00;;;;;;;2.03;1.85;;;22.80;70.80;;;;;;4997145;28;20253;-69
2022/05/21 03:42:25;;;;;;;1.85;1.75;;;22.80;70.80;;;;;;4982455;28;20229;-69
2022/05/21 03:44:51;;;;;;;1.90;1.80;;;22.80;70.70;;;;;;5000765;28;20196;-69
2022/05/21 03:47:17;;;;;;;1.92;1.83;;;22.80;70.60;;;;;;5016823;28;20220;-69
2022/05/21 03:49:42;;;;;;;1.73;1.63;;;22.80;70.60;;;;;;4999857;28;20189;-69
2022/05/21 03:52:08;;;;;;;3.45;2.05;;;22.80;70.60;;;;;;5000433;28;20217;-69
2022/05/21 03:54:36;;;;;;;1.90;1.80;;;22.80;70.60;;;;;;4984635;28;20289;-69
2022/05/21 03:57:02;;;;;;;1.90;1.63;;;22.90;70.70;;;;;;4984379;28;20204;-69
2022/05/21 03:59:28;;;;;;;2.45;1.75;;;22.80;70.70;;;;;;4984328;28;20236;-70
2022/05/21 04:01:53;;;;;;;2.13;1.70;;;22.80;70.50;;;;;;5000943;28;20231;-69
2022/05/21 04:04:19;;;;;;;1.73;1.63;;;22.80;70.50;;;;;;5017277;28;20189;-69
2022/05/21 04:06:45;;;;;;;2.03;1.70;;;22.80;70.60;;;;;;5016832;28;20219;-69
2022/05/21 04:09:11;;;;;;;1.80;1.70;;;22.80;70.60;;;;;;5017602;28;20211;-69
2022/05/21 04:11:37;;;;;;;1.50;1.40;;;22.80;71.20;;;;;;5001592;28;20692;-69
2022/05/21 04:14:03;;;;;;;2.53;2.00;;;22.80;70.50;;;;;;5018614;28;20266;-69
2022/05/21 04:16:29;;;;;;;2.00;1.80;;;22.80;70.40;;;;;;5020218;28;20222;-69
2022/05/21 04:18:54;;;;;;;1.80;1.70;;;22.80;70.30;;;;;;4989561;28;20284;-69
2022/05/21 04:21:20;;;;;;;1.75;1.65;;;22.80;70.30;;;;;;5017764;28;20196;-69
2022/05/21 04:23:46;;;;;;;1.90;1.80;;;22.80;70.30;;;;;;5014367;28;20224;-70
2022/05/21 04:26:12;;;;;;;1.60;1.50;;;22.80;70.30;;;;;;5013864;28;20213;-69
2022/05/21 04:28:38;;;;;;;1.80;1.70;;;22.80;70.30;;;;;;4999567;28;20174;-70
2022/05/21 04:31:05;;;;;;;1.92;1.70;;;22.80;70.10;;;;;;4998506;28;20183;-69
2022/05/21 04:33:30;;;;;;;1.60;1.50;;;22.80;70.00;;;;;;4982623;28;20268;-69
2022/05/21 04:38:41;;;;;;;1.50;1.40;;;22.80;70.00;;;;;;4999380;28;20176;-69
2022/05/21 04:41:07;;;;;;;2.10;1.70;;;22.70;69.90;;;;;;4998801;28;20173;-69
2022/05/21 04:43:33;;;;;;;1.50;1.40;;;22.80;70.00;;;;;;4998891;28;20195;-70
2022/05/21 04:46:00;;;;;;;2.15;1.60;;;22.80;70.00;;;;;;4999405;28;20230;-69
2022/05/21 04:48:26;;;;;;;1.63;1.52;;;22.80;70.00;;;;;;4999134;28;20192;-69
2022/05/21 04:50:52;;;;;;;1.95;1.85;;;22.70;69.90;;;;;;4981729;28;20199;-69
2022/05/21 04:53:17;;;;;;;2.03;1.90;;;22.80;69.90;;;;;;4983160;28;20216;-69
2022/05/21 04:55:43;;;;;;;1.50;1.40;;;22.80;70.00;;;;;;4985593;28;20209;-69
2022/05/21 04:58:09;;;;;;;1.75;1.65;;;22.80;70.00;;;;;;4993432;28;20192;-69
2022/05/21 05:00:35;;;;;;;1.50;1.40;;;22.70;69.90;;;;;;4992971;28;20280;-69
2022/05/21 05:03:01;;;;;;;1.60;1.50;;;22.70;69.90;;;;;;4993337;28;20189;-69
2022/05/21 05:05:27;;;;;;;1.70;1.60;;;22.80;70.00;;;;;;4976602;28;20190;-69
2022/05/21 05:07:52;;;;;;;1.50;1.40;;;22.70;69.90;;;;;;4978703;28;20185;-69
2022/05/21 05:10:18;;;;;;;1.58;1.48;;;22.80;70.00;;;;;;4994477;28;20225;-69
2022/05/21 05:12:44;;;;;;;2.10;1.20;;;22.70;69.90;;;;;;4977856;28;20233;-69
2022/05/21 05:15:10;;;;;;;1.77;1.67;;;22.80;70.00;;;;;;4993442;28;20193;-69
2022/05/21 05:17:36;;;;;;;1.73;1.63;;;22.70;69.90;;;;;;4993876;28;20197;-69
2022/05/21 05:20:03;;;;;;;1.38;1.27;;;22.70;69.80;;;;;;4994050;28;20182;-69
2022/05/21 05:22:29;;;;;;;2.28;1.38;;;22.80;69.90;;;;;;4978196;28;20207;-69
2022/05/21 05:24:55;;;;;;;1.60;1.50;;;22.70;69.80;;;;;;4962581;28;20332;-69
2022/05/21 05:27:21;;;;;;;1.70;1.60;;;22.70;69.70;;;;;;4994345;28;20219;-69
2022/05/21 05:29:47;;;;;;;2.38;1.17;;;22.80;69.90;;;;;;4997304;28;20196;-69
2022/05/21 05:32:12;;;;;;;1.67;1.58;;;22.70;69.90;;;;;;4966733;28;20221;-69
2022/05/21 05:34:38;;;;;;;1.50;1.40;;;22.70;69.70;;;;;;4998741;28;20197;-69
2022/05/21 05:37:04;;;;;;;1.52;1.42;;;22.70;69.70;;;;;;4982883;28;20212;-69
2022/05/21 05:39:33;;;;;;;2.05;1.30;;;22.70;69.60;;;;;;4999376;28;20685;-69
2022/05/21 05:42:04;;;;;;;1.60;1.50;;;22.70;69.70;;;;;;4951119;28;20194;-69
2022/05/21 05:44:31;;;;;;;1.40;1.30;;;22.70;69.60;;;;;;4999193;28;20236;-69
2022/05/21 05:46:57;;;;;;;1.55;1.45;;;22.70;69.60;;;;;;4998674;28;20216;-69
2022/05/21 05:49:24;;;;;;;1.50;1.40;;;22.70;69.50;;;;;;4998406;28;20185;-69
2022/05/21 05:51:49;;;;;;;1.30;1.20;;;22.70;69.50;;;;;;4998332;28;20229;-69
2022/05/21 05:54:16;;;;;;;1.55;1.20;;;22.70;69.60;;;;;;4998705;28;20190;-69
2022/05/21 05:56:44;;;;;;;2.03;1.15;;;22.70;69.50;;;;;;4982366;28;20201;-69
2022/05/21 06:05:00;;;;;;;1.42;1.33;;;22.70;69.40;;;;;;5020121;28;20278;-69
2022/05/21 06:07:26;;;;;;;1.50;1.40;;;22.70;69.20;;;;;;4998379;28;20215;-69
2022/05/21 06:09:54;;;;;;;1.50;1.40;;;22.80;69.20;;;;;;5013612;28;20217;-69
2022/05/21 06:12:20;;;;;;;1.20;1.15;;;22.80;69.20;;;;;;5008251;28;20213;-70
2022/05/21 06:14:46;;;;;;;1.40;1.30;;;22.80;69.00;;;;;;5006048;28;20671;-70
2022/05/21 06:17:13;;;;;;;1.52;1.42;;;22.80;69.10;;;;;;5008417;28;20213;-70
2022/05/21 06:19:38;;;;;;;1.38;1.27;;;22.80;69.00;;;;;;5022834;28;20611;-69
2022/05/21 06:22:04;;;;;;;2.45;1.40;;;22.70;68.90;;;;;;4995774;28;20185;-70
2022/05/21 06:24:36;;;;;;;1.40;1.30;;;22.80;68.80;;;;;;4979370;28;20212;-70
2022/05/21 06:27:03;;;;;;;1.58;1.40;;;22.80;68.30;;;;;;5011235;28;20215;-70
2022/05/21 06:29:29;;;;;;;1.10;1.10;;;22.70;68.20;;;;;;4993846;28;20196;-69
2022/05/21 06:31:54;;;;;;;1.08;1.08;;;22.80;68.40;;;;;;4978814;28;20217;-69
2022/05/21 06:34:20;;;;;;;1.33;1.23;;;22.80;68.30;;;;;;4994864;28;20215;-69
2022/05/21 06:36:46;;;;;;;1.33;1.15;;;22.80;68.10;;;;;;5004486;28;20212;-69
2022/05/21 06:39:12;;;;;;;1.42;1.33;;;22.80;68.20;;;;;;5028292;28;20571;-70
2022/05/21 06:41:38;;;;;;;1.20;1.20;;;22.70;68.00;;;;;;5015917;28;20197;-69
2022/05/21 06:44:04;;;;;;;1.48;1.38;;;22.80;67.90;;;;;;4996431;28;20196;-69
2022/05/21 06:46:30;;;;;;;1.50;1.40;;;22.70;67.70;;;;;;5019985;28;20212;-69
2022/05/21 06:48:55;;;;;;;1.65;1.10;;;22.80;67.80;;;;;;5012019;28;20219;-69
2022/05/21 06:51:21;;;;;;;1.10;1.10;;;22.70;67.60;;;;;;4995814;28;20228;-69
2022/05/21 06:53:47;;;;;;;1.17;1.08;;;22.80;67.60;;;;;;4994381;28;20177;-69
2022/05/21 06:56:16;;;;;;;1.15;1.10;;;22.80;67.40;;;;;;4987066;28;20688;-70
2022/05/21 06:58:43;;;;;;;1.67;1.02;;;22.80;67.50;;;;;;5027473;28;20181;-71
2022/05/21 07:01:09;;;;;;;1.17;1.10;;;22.80;67.10;;;;;;4993987;28;20247;-70
2022/05/21 07:03:35;;;;;;;1.40;1.30;;;22.80;66.70;;;;;;4993934;28;20204;-70
2022/05/21 07:08:55;;;;;;;1.25;1.10;;;22.80;66.80;;;;;;5010592;28;20625;-69
2022/05/21 07:11:20;;;;;;;1.23;1.13;;;22.80;66.00;;;;;;4994736;28;20193;-71
2022/05/21 07:13:46;;;;;;;1.00;0.90;;;22.80;66.10;;;;;;5010572;28;20185;-69
2022/05/21 07:16:12;;;;;;;1.30;1.20;;;22.80;66.00;;;;;;4994095;28;20212;-70
2022/05/21 07:18:38;;;;;;;1.05;0.95;;;22.80;66.00;;;;;;5010106;28;20216;-71
2022/05/21 07:21:04;;;;;;;1.25;1.15;;;22.80;66.20;;;;;;4993574;28;20212;-71
2022/05/21 07:23:30;;;;;;;1.20;1.10;;;22.80;66.20;;;;;;4994051;28;20245;-70
2022/05/21 07:25:55;;;;;;;1.00;1.00;;;22.80;66.00;;;;;;5025741;28;20236;-71
2022/05/21 07:28:21;;;;;;;1.10;1.10;;;22.80;66.00;;;;;;5026250;28;20184;-70
2022/05/21 07:30:47;;;;;;;0.90;0.90;;;22.80;66.00;;;;;;5009301;28;20617;-70
2022/05/21 07:33:20;;;;;;;1.23;1.20;;;22.90;65.90;;;;;;4992932;28;20217;-71
2022/05/21 07:35:46;;;;;;;1.00;1.00;;;22.80;66.10;;;;;;4992539;28;20208;-70
2022/05/21 07:38:14;;;;;;;1.35;1.25;;;22.80;66.00;;;;;;5009312;28;20239;-70
2022/05/21 07:40:44;;;;;;;0.80;0.80;;;22.80;66.10;;;;;;4992709;28;20184;-71
2022/05/21 07:43:14;;;;;;;1.08;1.08;;;22.90;66.00;;;;;;4992987;28;20292;-71
2022/05/21 07:45:41;;;;;;;1.23;1.10;;;22.90;65.90;;;;;;5008970;28;20255;-71
2022/05/21 07:48:10;;;;;;;1.05;1.00;;;22.90;66.00;;;;;;5008958;28;20193;-71
2022/05/21 07:50:40;;;;;;;1.30;1.20;;;22.90;65.50;;;;;;5009032;28;20189;-70
2022/05/21 07:53:29;;;;;;;1.30;1.20;;;22.90;65.50;;;;;;5008605;28;20650;-70
2022/05/21 07:55:56;;;;;;;1.00;0.90;;;22.90;65.30;;;;;;5008838;28;20215;-70
2022/05/21 07:58:26;;;;;;;1.75;0.98;;;23.00;65.30;;;;;;4993604;28;20177;-71
2022/05/21 08:00:54;;;;;;;1.00;1.00;;;22.90;65.20;;;;;;4980590;28;20181;-71
2022/05/21 08:03:22;;;;;;;2.97;1.08;;;23.00;65.60;;;;;;4989222;28;20181;-71
2022/05/21 08:05:48;;;;;;;2.10;1.05;;;23.00;65.30;;;;;;4989542;28;20341;-71
2022/05/21 08:08:14;;;;;;;1.15;1.08;;;23.00;65.30;;;;;;4989872;28;20196;-71
2022/05/21 08:10:44;;;;;;;1.50;0.90;;;23.00;65.10;;;;;;4989687;28;20181;-70
2022/05/21 08:13:11;;;;;;;1.25;1.15;;;23.00;64.90;;;;;;4974107;28;20325;-70
2022/05/21 08:15:39;;;;;;;0.90;0.90;;;23.00;65.30;;;;;;4989502;28;20216;-70
2022/05/21 08:18:05;;;;;;;1.00;1.00;;;23.00;65.30;;;;;;4989956;28;20181;-70
2022/05/21 08:20:33;;;;;;;1.08;0.80;;;23.00;65.20;;;;;;4990220;28;20188;-70
2022/05/21 08:28:27;;;;;;;0.90;0.90;;;23.00;64.60;;;;;;4973146;28;20210;-70
2022/05/21 08:30:54;;;;;;;1.15;1.00;;;23.00;64.10;;;;;;4973190;28;20193;-70
2022/05/21 08:33:24;;;;;;;1.27;0.98;;;23.00;64.10;;;;;;4957222;28;20206;-70
2022/05/21 08:35:50;;;;;;;1.85;1.10;;;23.00;64.60;;;;;;4956528;28;20212;-70
2022/05/21 08:38:17;;;;;;;1.05;0.95;;;23.00;64.40;;;;;;4974312;28;20237;-70
2022/05/21 08:41:03;;;;;;;1.83;1.33;;;23.00;64.30;;;;;;4989091;28;20181;-70
2022/05/21 08:43:37;;;;;;;1.08;0.98;;;23.00;64.10;;;;;;4989706;28;20581;-70
2022/05/21 08:46:26;;;;;;;1.17;1.08;;;23.10;64.20;;;;;;4989219;28;20316;-70
2022/05/21 08:49:02;;;;;;;6.15;1.10;;;23.10;64.20;;;;;;4986028;28;20177;-72
2022/05/21 08:51:36;;;;;;;0.90;0.80;;;22.60;58.10;;;;;;5008195;28;20288;-73
2022/05/21 08:54:04;;;;;;;1.80;0.90;;;20.40;56.00;;;;;;4991909;28;20176;-73
2022/05/21 08:56:31;;;;;;;0.82;0.73;;;19.30;58.40;;;;;;5007583;28;20196;-73
2022/05/21 08:59:04;;;;;;;2.20;1.17;;;19.20;58.70;;;;;;4991857;28;20192;-73
2022/05/21 09:01:35;;;;;;;1.85;1.10;;;19.20;58.00;;;;;;5007890;28;20185;-73
2022/05/21 09:04:03;;;;;;;1.40;1.15;;;19.10;58.30;;;;;;5009184;28;20176;-72
2022/05/21 09:06:57;;;;;;;0.88;0.88;;;19.30;57.00;;;;;;5011572;28;20201;-73
2022/05/21 09:09:36;;;;;;;1.98;0.88;;;19.10;56.80;;;;;;4996721;28;20173;-72
2022/05/21 09:12:17;;;;;;;2.20;1.00;;;18.90;56.60;;;;;;4995331;28;20255;-72
2022/05/21 09:14:46;;;;;;;1.13;1.00;;;18.80;56.60;;;;;;5011524;28;20678;-72
2022/05/21 09:17:15;;;;;;;1.58;0.70;;;19.50;57.80;;;;;;5011744;28;20247;-72
2022/05/21 09:19:55;;;;;;;0.85;0.82;;;19.80;55.30;;;;;;4978938;28;20188;-72
2022/05/21 09:22:22;;;;;;;1.05;1.00;;;19.40;54.00;;;;;;5011479;28;20223;-72
2022/05/21 09:24:59;;;;;;;1.50;0.90;;;19.30;55.40;;;;;;5011215;28;20185;-72
2022/05/21 09:27:33;;;;;;;2.17;1.10;;;19.10;55.30;;;;;;4978688;28;20708;-72
2022/05/21 09:30:16;;;;;;;1.00;0.90;;;19.10;56.30;;;;;;5011689;28;20195;-72
2022/05/21 09:32:48;;;;;;;2.05;1.02;;;19.10;56.60;;;;;;4996099;28;20201;-72
2022/05/21 09:35:21;;;;;;;2.33;1.10;;;19.10;56.40;;;;;;5011114;28;20181;-72
2022/05/21 09:37:47;;;;;;;1.40;1.25;;;19.40;56.90;;;;;;4996069;28;20241;-72
2022/05/21 09:40:46;;;;;;;2.88;0.82;;;19.00;57.70;;;;;;4979013;28;20264;-72
2022/05/21 09:46:27;;;;;;;1.30;1.10;;;19.40;55.80;;;;;;4996014;28;20259;-72
2022/05/21 09:49:12;;;;;;;0.95;0.90;;;19.30;55.40;;;;;;4978330;28;20181;-72
2022/05/21 09:51:40;;;;;;;1.13;0.82;;;19.20;55.20;;;;;;5010928;28;20228;-72
2022/05/21 09:54:25;;;;;;;1.88;1.02;;;19.20;54.70;;;;;;4995878;28;20180;-72
2022/05/21 09:56:54;;;;;;;1.58;0.93;;;18.80;54.50;;;;;;4994460;28;20212;-71
2022/05/21 09:59:28;;;;;;;3.33;1.20;;;19.10;55.90;;;;;;4994455;28;20181;-72
2022/05/21 10:01:59;;;;;;;1.08;0.80;;;18.90;55.10;;;;;;4994453;28;20185;-72
2022/05/21 10:04:58;;;;;;;0.80;0.80;;;19.00;55.70;;;;;;4994558;28;20547;-72
2022/05/21 10:10:59;;;;;;;2.65;1.40;;;19.40;55.30;;;;;;4995444;28;20193;-72
2022/05/21 10:13:33;;;;;;;1.10;0.82;;;19.50;54.30;;;;;;5010601;28;20216;-72
2022/05/21 10:16:30;;;;;;;0.98;0.80;;;19.40;55.00;;;;;;5009823;28;20215;-72
2022/05/21 10:19:38;;;;;;;0.95;0.70;;;19.40;54.80;;;;;;4994107;28;20278;-71
2022/05/21 10:22:46;;;;;;;0.80;0.55;;;19.00;55.10;;;;;;4987102;28;20193;-72
2022/05/21 10:25:20;;;;;;;0.60;0.55;;;19.00;54.60;;;;;;4958337;28;20206;-72
2022/05/21 10:28:27;;;;;;;4.10;0.70;;;19.00;54.20;;;;;;4977396;28;20267;-72
2022/05/21 10:31:33;;;;;;;1.05;0.82;;;19.20;55.00;;;;;;4993880;28;20192;-72
2022/05/21 10:34:11;;;;;;;4.10;0.57;;;19.50;54.50;;;;;;4977752;28;20200;-72
2022/05/21 10:36:43;;;;;;;1.65;0.63;;;19.60;55.40;;;;;;5009884;28;20298;-72
2022/05/21 10:39:35;;;;;;;0.60;0.60;;;20.10;54.90;;;;;;4993931;28;20193;-72
2022/05/21 10:42:22;;;;;;;1.13;0.80;;;20.50;54.30;;;;;;4974420;28;20221;-73
2022/05/21 10:45:16;;;;;;;1.25;0.60;;;20.80;54.00;;;;;;4990366;28;20169;-72
2022/05/21 10:48:06;;;;;;;0.75;0.75;;;21.00;54.10;;;;;;4974322;28;20189;-72
2022/05/21 10:50:54;;;;;;;0.70;0.70;;;21.20;54.10;;;;;;4974491;28;20174;-72
2022/05/21 10:53:47;;;;;;;1.35;0.63;;;21.30;54.30;;;;;;4973905;28;20244;-73
2022/05/21 10:56:25;;;;;;;0.60;0.60;;;21.40;54.40;;;;;;5017377;28;20200;-72
2022/05/21 11:00:07;;;;;;;1.35;0.77;;;21.40;54.60;;;;;;5009938;28;20204;-72
2022/05/21 11:03:30;;;;;;;0.80;0.55;;;21.50;54.60;;;;;;4915289;29;20199;-72
2022/05/21 11:06:17;;;;;;;1.05;0.50;;;21.50;54.50;;;;;;5009227;28;20217;-72
2022/05/21 11:09:10;;;;;;;0.77;0.52;;;21.60;54.90;;;;;;5009540;28;20285;-72
2022/05/21 11:12:04;;;;;;;2.30;0.60;;;21.60;54.90;;;;;;5026270;28;20223;-72
2022/05/21 11:14:56;;;;;;;0.65;0.52;;;21.70;54.90;;;;;;4994264;28;20172;-72
2022/05/21 11:17:38;;;;;;;0.60;0.60;;;21.70;55.10;;;;;;4993183;28;20554;-72
2022/05/21 11:20:15;;;;;;;0.75;0.57;;;21.70;55.30;;;;;;5025933;28;20192;-72
2022/05/21 11:23:06;;;;;;;0.63;0.63;;;21.70;55.40;;;;;;4994470;28;20181;-73
2022/05/21 11:25:55;;;;;;;0.82;0.70;;;21.70;55.20;;;;;;5008953;28;20204;-72
2022/05/21 11:28:29;;;;;;;0.77;0.60;;;21.70;55.30;;;;;;4992649;28;20195;-72
2022/05/21 11:31:01;;;;;;;1.25;0.70;;;21.80;55.40;;;;;;5025982;28;20185;-72
2022/05/21 11:39:10;;;;;;;2.17;0.60;;;21.90;55.90;;;;;;4993314;28;20187;-72
2022/05/21 11:42:17;;;;;;;0.65;0.60;;;21.90;55.80;;;;;;4992753;28;20177;-72
2022/05/21 11:44:56;;;;;;;1.02;0.60;;;22.00;55.90;;;;;;4993835;28;20192;-72
2022/05/21 11:47:22;;;;;;;0.63;0.60;;;22.00;56.00;;;;;;5009216;28;20219;-73
2022/05/21 11:50:03;;;;;;;0.80;0.70;;;21.90;56.20;;;;;;5009001;28;20192;-73
2022/05/21 11:52:35;;;;;;;0.60;0.60;;;22.00;56.30;;;;;;5008819;28;20224;-73
2022/05/21 11:55:16;;;;;;;0.95;0.52;;;22.00;56.20;;;;;;5024968;28;20239;-72
2022/05/21 11:57:56;;;;;;;0.75;0.60;;;22.00;56.20;;;;;;4992575;28;20157;-72
2022/05/21 12:00:22;;;;;;;1.73;0.70;;;22.00;56.20;;;;;;4992762;28;20180;-72
2022/05/21 12:02:53;;;;;;;0.60;0.60;;;22.00;56.50;;;;;;5008996;28;20195;-72
2022/05/21 12:05:37;;;;;;;0.85;0.60;;;22.00;56.30;;;;;;5008378;28;20189;-72
2022/05/21 12:08:12;;;;;;;1.20;0.70;;;22.10;56.50;;;;;;5008682;28;20181;-72
2022/05/21 12:11:08;;;;;;;0.55;0.55;;;22.10;56.50;;;;;;4993249;28;20184;-72
2022/05/21 12:13:34;;;;;;;0.57;0.57;;;22.10;56.60;;;;;;5008662;28;20217;-72
2022/05/21 12:16:16;;;;;;;0.80;0.80;;;22.10;56.60;;;;;;4992966;28;20568;-72
2022/05/21 12:18:46;;;;;;;1.30;0.55;;;22.10;56.50;;;;;;5008713;28;20192;-73
2022/05/21 12:21:36;;;;;;;0.50;0.50;;;22.10;56.80;;;;;;5009007;28;20231;-69
2022/05/21 12:24:26;;;;;;;0.65;0.60;;;22.10;56.70;;;;;;5008649;28;20215;-70
2022/05/21 12:27:21;;;;;;;1.83;0.77;;;22.10;56.60;;;;;;5007885;28;20208;-70
2022/05/21 12:29:51;;;;;;;1.25;0.55;;;22.10;56.60;;;;;;4993227;28;20271;-70
2022/05/21 12:32:27;;;;;;;0.60;0.60;;;22.10;56.90;;;;;;4993339;28;20342;-70
2022/05/21 12:35:14;;;;;;;1.20;0.70;;;22.10;56.90;;;;;;4991600;28;20238;-70
2022/05/21 12:37:48;;;;;;;0.70;0.60;;;22.10;56.70;;;;;;4992028;28;20192;-70
2022/05/21 12:40:34;;;;;;;0.93;0.77;;;22.10;57.20;;;;;;4991423;28;20199;-70
2022/05/21 12:43:14;;;;;;;1.13;0.85;;;22.10;57.00;;;;;;4992476;28;20204;-70
2022/05/21 12:45:49;;;;;;;0.90;0.70;;;22.20;57.10;;;;;;4974723;28;20566;-70
2022/05/21 12:48:29;;;;;;;0.70;0.50;;;22.20;57.00;;;;;;4991287;28;20188;-70
2022/05/21 12:50:59;;;;;;;1.17;0.68;;;22.20;57.20;;;;;;4991185;28;20660;-70
2022/05/21 12:53:52;;;;;;;0.65;0.65;;;22.20;56.90;;;;;;4974880;28;20253;-70
2022/05/21 12:56:23;;;;;;;0.60;0.60;;;22.20;57.20;;;;;;4973751;28;20255;-70
2022/05/21 12:59:14;;;;;;;1.05;0.60;;;22.20;57.20;;;;;;4990675;28;20197;-70
2022/05/21 13:01:52;;;;;;;0.60;0.60;;;22.20;57.30;;;;;;4991204;28;20220;-70
2022/05/21 13:04:25;;;;;;;0.70;0.70;;;22.20;57.40;;;;;;5007509;28;20200;-70
2022/05/21 13:07:03;;;;;;;0.55;0.52;;;22.20;57.70;;;;;;5007052;28;20201;-70
2022/05/21 13:09:30;;;;;;;0.60;0.60;;;22.20;57.30;;;;;;5007740;28;20192;-70
2022/05/21 13:11:56;;;;;;;0.68;0.68;;;22.30;57.70;;;;;;4991101;28;20247;-70
2022/05/21 13:14:45;;;;;;;1.55;0.70;;;22.30;57.70;;;;;;4990914;28;20178;-70
2022/05/21 13:17:46;;;;;;;0.85;0.60;;;22.30;57.50;;;;;;4990590;28;20779;-70
2022/05/21 13:20:35;;;;;;;0.65;0.65;;;22.30;57.70;;;;;;4991012;28;20188;-70
2022/05/21 13:23:37;;;;;;;0.50;0.50;;;22.30;57.80;;;;;;4974716;28;20189;-70
2022/05/21 13:26:04;;;;;;;0.60;0.60;;;22.30;57.50;;;;;;4991801;28;20212;-69
2022/05/21 13:28:29;;;;;;;0.52;0.50;;;22.30;57.60;;;;;;4991065;28;20231;-70
2022/05/21 13:30:55;;;;;;;0.85;0.80;;;22.30;57.50;;;;;;4991303;28;20224;-70
2022/05/21 13:33:34;;;;;;;0.50;0.50;;;22.30;57.40;;;;;;4991426;28;20215;-70
2022/05/21 13:36:07;;;;;;;0.95;0.70;;;22.30;57.50;;;;;;4992546;28;20204;-70
2022/05/21 13:38:40;;;;;;;0.80;0.70;;;22.30;57.30;;;;;;4991544;28;20192;-70
2022/05/21 13:41:13;;;;;;;0.88;0.75;;;22.30;57.10;;;;;;4991482;28;20181;-70
2022/05/21 13:43:48;;;;;;;1.42;0.73;;;22.30;57.30;;;;;;4992770;28;20181;-70
2022/05/21 13:46:23;;;;;;;0.55;0.50;;;22.30;57.40;;;;;;4975119;28;20204;-70
2022/05/21 13:48:56;;;;;;;0.75;0.60;;;22.30;57.50;;;;;;5008231;28;20192;-70
2022/05/21 13:51:23;;;;;;;0.98;0.70;;;22.30;57.30;;;;;;5010991;28;20184;-70